createdAt,value
2022-12-27T00:01:35.790Z,1.30
2022-12-27T00:04:06.727Z,2.63
2022-12-27T00:06:34.953Z,1.40
2022-12-27T00:09:03.095Z,2.03
2022-12-27T00:11:30.911Z,1.40
2022-12-27T00:14:01.398Z,1.53
2022-12-27T00:16:29.455Z,1.77
2022-12-27T00:19:06.126Z,1.50
2022-12-27T00:21:33.846Z,1.47
2022-12-27T00:24:01.984Z,1.70
2022-12-27T00:26:31.157Z,1.40
2022-12-27T00:28:59.363Z,2.00
2022-12-27T00:31:30.389Z,1.60
2022-12-27T00:34:02.446Z,1.90
2022-12-27T00:36:31.651Z,2.10
2022-12-27T00:39:00.037Z,1.57
2022-12-27T00:41:27.918Z,2.38
2022-12-27T00:43:55.475Z,2.00
2022-12-27T00:46:23.129Z,2.33
2022-12-27T00:48:52.113Z,1.70
2022-12-27T00:51:21.439Z,2.07
2022-12-27T00:53:49.803Z,1.87
2022-12-27T00:56:19.180Z,2.43
2022-12-27T00:58:46.828Z,3.00
2022-12-27T01:01:20.153Z,2.33
2022-12-27T01:03:48.244Z,1.92
2022-12-27T01:06:18.736Z,2.20
2022-12-27T01:08:46.801Z,1.70
2022-12-27T01:11:15.595Z,2.00
2022-12-27T01:13:43.354Z,1.83
2022-12-27T01:16:12.082Z,1.63
2022-12-27T01:18:39.585Z,1.50
2022-12-27T01:21:07.886Z,2.07
2022-12-27T01:23:36.979Z,1.50
2022-12-27T01:26:05.866Z,2.03
2022-12-27T01:28:33.692Z,1.30
2022-12-27T01:31:06.162Z,1.80
2022-12-27T01:33:33.673Z,1.80
2022-12-27T01:36:08.853Z,1.70
2022-12-27T01:38:37.673Z,1.90
2022-12-27T01:41:25.315Z,1.80
2022-12-27T01:43:51.818Z,2.00
2022-12-27T01:46:19.564Z,2.43
2022-12-27T01:48:47.518Z,2.07
2022-12-27T01:51:15.099Z,1.73
2022-12-27T01:53:46.786Z,1.20
2022-12-27T01:56:17.252Z,1.27
2022-12-27T01:58:48.036Z,1.30
2022-12-27T02:01:21.783Z,1.70
2022-12-27T02:03:51.537Z,1.37
2022-12-27T02:06:20.670Z,1.67
2022-12-27T02:08:55.319Z,1.30
2022-12-27T02:11:45.168Z,1.03
2022-12-27T02:14:13.175Z,1.20
2022-12-27T02:16:40.671Z,1.07
2022-12-27T02:19:13.482Z,0.93
2022-12-27T02:22:07.570Z,1.23
2022-12-27T02:25:02.764Z,1.20
2022-12-27T02:27:44.807Z,1.10
2022-12-27T02:30:19.425Z,1.10
2022-12-27T02:32:54.509Z,1.27
2022-12-27T02:35:25.657Z,1.10
2022-12-27T02:37:56.709Z,1.10
2022-12-27T02:40:42.799Z,1.27
2022-12-27T02:43:28.656Z,0.80
2022-12-27T02:46:21.835Z,1.27
2022-12-27T02:49:11.472Z,1.10
2022-12-27T02:52:08.811Z,0.90
2022-12-27T02:54:47.724Z,1.00
2022-12-27T02:57:22.708Z,1.20
2022-12-27T03:00:21.565Z,0.90
2022-12-27T03:03:18.147Z,1.20
2022-12-27T03:06:27.916Z,0.90
2022-12-27T03:09:04.227Z,0.88
2022-12-27T03:11:52.889Z,1.80
2022-12-27T03:14:44.055Z,0.98
2022-12-27T03:17:16.840Z,0.90
2022-12-27T03:20:06.433Z,1.30
2022-12-27T03:22:52.188Z,0.95
2022-12-27T03:25:31.880Z,0.97
2022-12-27T03:28:20.649Z,0.90
2022-12-27T03:31:08.412Z,1.10
2022-12-27T03:33:37.390Z,1.42
2022-12-27T03:36:26.880Z,1.03
2022-12-27T03:39:01.212Z,1.00
2022-12-27T03:41:49.111Z,1.00
2022-12-27T03:44:25.655Z,1.20
2022-12-27T03:46:55.828Z,1.20
2022-12-27T03:49:26.496Z,0.95
2022-12-27T03:51:58.616Z,0.88
2022-12-27T03:54:28.770Z,1.15
2022-12-27T03:56:57.471Z,0.98
2022-12-27T03:59:25.227Z,0.90
2022-12-27T04:01:52.840Z,0.98
2022-12-27T04:04:20.342Z,1.10
2022-12-27T04:06:47.832Z,0.90
2022-12-27T04:09:34.354Z,0.83
2022-12-27T04:12:19.603Z,0.90
2022-12-27T04:15:04.938Z,0.97
2022-12-27T04:17:50.252Z,1.73
2022-12-27T04:20:35.540Z,1.15
2022-12-27T04:23:20.958Z,0.80
2022-12-27T04:26:07.493Z,1.23
2022-12-27T04:28:52.731Z,0.90
2022-12-27T04:31:38.002Z,0.93
2022-12-27T04:34:23.202Z,1.40
2022-12-27T04:36:50.785Z,0.98
2022-12-27T04:39:18.347Z,0.80
2022-12-27T04:42:04.697Z,0.90
2022-12-27T04:44:58.460Z,0.87
2022-12-27T04:47:43.422Z,0.93
2022-12-27T04:50:35.162Z,1.00
2022-12-27T04:53:20.435Z,0.95
2022-12-27T04:55:47.884Z,1.10
2022-12-27T04:58:16.699Z,1.70
2022-12-27T05:01:02.042Z,1.03
2022-12-27T05:03:29.563Z,1.10
2022-12-27T05:05:57.138Z,0.90
2022-12-27T05:08:42.039Z,1.23
2022-12-27T05:11:27.312Z,1.13
2022-12-27T05:14:02.073Z,1.40
2022-12-27T05:16:30.498Z,1.70
2022-12-27T05:18:58.011Z,1.00
2022-12-27T05:21:25.856Z,1.13
2022-12-27T05:24:11.236Z,1.30
2022-12-27T05:26:39.100Z,1.30
2022-12-27T05:29:08.705Z,0.85
2022-12-27T05:31:36.265Z,1.67
2022-12-27T05:34:03.774Z,1.20
2022-12-27T05:36:31.227Z,0.93
2022-12-27T05:38:59.144Z,1.23
2022-12-27T05:41:26.967Z,1.48
2022-12-27T05:43:54.419Z,1.27
2022-12-27T05:46:23.302Z,1.10
2022-12-27T05:48:50.886Z,1.03
2022-12-27T05:51:20.435Z,1.57
2022-12-27T05:53:48.410Z,1.30
2022-12-27T05:56:17.363Z,1.03
2022-12-27T05:58:45.332Z,1.65
2022-12-27T06:01:14.441Z,0.93
2022-12-27T06:03:43.404Z,1.60
2022-12-27T06:06:11.450Z,1.25
2022-12-27T06:08:39.841Z,1.60
2022-12-27T06:11:08.954Z,1.50
2022-12-27T06:13:37.332Z,1.52
2022-12-27T06:16:06.164Z,1.73
2022-12-27T06:18:35.493Z,1.50
2022-12-27T06:21:06.382Z,1.30
2022-12-27T06:23:34.151Z,1.50
2022-12-27T06:26:05.616Z,1.77
2022-12-27T06:28:33.153Z,2.00
2022-12-27T06:31:01.025Z,2.13
2022-12-27T06:33:28.844Z,2.13
2022-12-27T06:35:57.529Z,1.40
2022-12-27T06:38:26.453Z,1.57
2022-12-27T06:40:53.950Z,1.30
2022-12-27T06:43:21.433Z,1.70
2022-12-27T06:45:56.846Z,2.05
2022-12-27T06:48:24.641Z,2.07
2022-12-27T06:50:52.133Z,2.57
2022-12-27T06:53:19.651Z,1.60
2022-12-27T06:55:48.794Z,1.50
2022-12-27T06:58:16.580Z,1.73
2022-12-27T07:00:44.043Z,1.90
2022-12-27T07:03:11.557Z,1.80
2022-12-27T07:05:39.166Z,1.93
2022-12-27T07:08:07.122Z,2.08
2022-12-27T07:10:34.579Z,2.03
2022-12-27T07:13:03.816Z,2.28
2022-12-27T07:15:31.474Z,1.95
2022-12-27T07:17:58.924Z,2.65
2022-12-27T07:20:26.402Z,2.67
2022-12-27T07:22:53.840Z,2.00
2022-12-27T07:25:21.274Z,2.30
2022-12-27T07:27:48.724Z,2.33
2022-12-27T07:30:17.514Z,2.40
2022-12-27T07:32:44.980Z,2.70
2022-12-27T07:35:12.464Z,2.50
2022-12-27T07:37:39.932Z,8.07
2022-12-27T07:40:08.714Z,3.97
2022-12-27T07:42:36.307Z,3.87
2022-12-27T07:45:03.894Z,3.03
2022-12-27T07:47:32.797Z,3.40
2022-12-27T07:50:00.385Z,2.92
2022-12-27T07:52:27.938Z,3.00
2022-12-27T07:54:55.436Z,3.70
2022-12-27T07:57:23.062Z,4.43
2022-12-27T07:59:50.690Z,3.03
2022-12-27T08:02:18.311Z,3.10
2022-12-27T08:04:47.277Z,2.77
2022-12-27T08:07:16.865Z,2.67
2022-12-27T08:09:46.035Z,3.50
2022-12-27T08:12:14.378Z,3.00
2022-12-27T08:14:42.298Z,2.30
2022-12-27T08:17:15.189Z,2.10
2022-12-27T08:19:42.816Z,3.00
2022-12-27T08:22:11.700Z,2.67
2022-12-27T08:24:40.843Z,2.57
2022-12-27T08:27:08.487Z,3.20
2022-12-27T08:29:36.024Z,3.50
2022-12-27T08:32:03.683Z,2.47
2022-12-27T08:34:31.203Z,2.57
2022-12-27T08:36:58.777Z,2.50
2022-12-27T08:39:29.998Z,4.50
2022-12-27T08:41:57.767Z,2.73
2022-12-27T08:44:27.296Z,1.70
2022-12-27T08:46:54.825Z,2.33
2022-12-27T08:49:22.835Z,2.17
2022-12-27T08:51:50.938Z,2.80
2022-12-27T08:54:18.509Z,3.43
2022-12-27T08:56:47.878Z,4.70
2022-12-27T08:59:15.407Z,2.80
2022-12-27T09:01:43.062Z,2.90
2022-12-27T09:04:10.599Z,3.00
2022-12-27T09:06:40.544Z,2.60
2022-12-27T09:09:08.165Z,2.60
2022-12-27T09:11:35.889Z,5.37
2022-12-27T09:14:06.429Z,5.67
2022-12-27T09:16:35.471Z,5.30
2022-12-27T09:19:04.281Z,5.47
2022-12-27T09:21:33.834Z,9.40
2022-12-27T09:24:01.434Z,11.87
2022-12-27T09:26:30.417Z,6.90
2022-12-27T09:28:58.418Z,6.07
2022-12-27T09:31:28.034Z,5.10
2022-12-27T09:33:56.605Z,2.67
2022-12-27T09:36:25.472Z,2.80
2022-12-27T09:38:54.243Z,3.70
2022-12-27T09:42:25.139Z,3.83
2022-12-27T09:44:14.278Z,3.50
2022-12-27T09:46:45.448Z,3.03
2022-12-27T09:49:14.336Z,2.50
2022-12-27T09:51:47.391Z,3.30
2022-12-27T09:54:16.242Z,3.30
2022-12-27T09:59:34.325Z,2.83
2022-12-27T10:02:03.230Z,3.20
2022-12-27T10:05:09.816Z,3.20
2022-12-27T10:07:30.931Z,2.80
2022-12-27T10:10:05.018Z,3.07
2022-12-27T10:12:47.962Z,2.23
2022-12-27T10:15:24.791Z,3.10
2022-12-27T10:18:08.059Z,2.43
2022-12-27T10:20:46.916Z,2.20
2022-12-27T10:23:17.328Z,2.60
2022-12-27T10:25:46.542Z,2.03
2022-12-27T10:28:16.148Z,2.30
2022-12-27T10:30:44.251Z,2.60
2022-12-27T10:33:20.355Z,2.87
2022-12-27T10:35:48.194Z,3.30
2022-12-27T10:38:15.636Z,2.80
2022-12-27T10:40:51.761Z,3.40
2022-12-27T10:43:20.969Z,2.43
2022-12-27T10:45:48.913Z,2.60
2022-12-27T10:48:20.788Z,2.43
2022-12-27T10:50:51.762Z,2.50
2022-12-27T10:53:35.126Z,3.33
2022-12-27T10:56:14.322Z,3.00
2022-12-27T10:58:43.596Z,3.00
2022-12-27T11:01:19.719Z,2.63
2022-12-27T11:03:48.582Z,2.40
2022-12-27T11:06:22.164Z,3.60
2022-12-27T11:08:50.219Z,2.93
2022-12-27T11:11:20.453Z,2.90
2022-12-27T11:13:48.814Z,3.60
2022-12-27T11:16:19.964Z,3.13
2022-12-27T11:18:51.114Z,3.00
2022-12-27T11:21:27.268Z,2.27
2022-12-27T11:23:57.682Z,2.30
2022-12-27T11:26:26.797Z,2.47
2022-12-27T11:28:55.815Z,2.87
2022-12-27T11:31:32.877Z,4.60
2022-12-27T11:34:04.465Z,2.97
2022-12-27T11:36:35.604Z,2.33
2022-12-27T11:39:03.221Z,2.90
2022-12-27T11:41:35.690Z,3.07
2022-12-27T11:44:10.310Z,2.37
2022-12-27T11:46:41.828Z,2.90
2022-12-27T11:49:17.935Z,2.70
2022-12-27T11:51:52.143Z,3.73
2022-12-27T11:54:29.730Z,4.00
2022-12-27T11:57:01.856Z,3.93
2022-12-27T11:59:40.360Z,3.43
2022-12-27T12:02:28.763Z,3.47
2022-12-27T12:05:31.396Z,4.00
2022-12-27T12:08:17.826Z,4.20
2022-12-27T12:10:50.427Z,10.53
2022-12-27T12:13:34.702Z,10.40
2022-12-27T12:16:16.762Z,3.33
2022-12-27T12:19:10.087Z,4.07
2022-12-27T12:21:41.535Z,4.30
2022-12-27T12:24:28.347Z,3.07
2022-12-27T12:27:10.739Z,4.90
2022-12-27T12:29:57.692Z,3.93
2022-12-27T12:32:36.146Z,3.30
2022-12-27T12:35:37.584Z,2.73
2022-12-27T12:38:18.286Z,2.47
2022-12-27T12:41:12.676Z,2.60
2022-12-27T12:43:52.372Z,2.27
2022-12-27T12:46:28.672Z,1.73
2022-12-27T12:49:07.609Z,2.53
2022-12-27T12:51:46.496Z,2.10
2022-12-27T12:54:29.019Z,2.23
2022-12-27T12:57:08.771Z,2.73
2022-12-27T13:00:09.393Z,2.50
2022-12-27T13:03:00.973Z,2.17
2022-12-27T13:05:36.814Z,2.33
2022-12-27T13:08:11.433Z,2.20
2022-12-27T13:11:07.679Z,2.13
2022-12-27T13:13:45.263Z,1.97
2022-12-27T13:16:21.543Z,2.20
2022-12-27T13:18:55.603Z,1.80
2022-12-27T13:21:31.188Z,1.60
2022-12-27T13:24:07.449Z,1.80
2022-12-27T13:26:43.046Z,2.50
2022-12-27T13:29:48.983Z,1.93
2022-12-27T13:32:24.555Z,1.57
2022-12-27T13:35:02.647Z,1.70
2022-12-27T13:37:38.283Z,2.20
2022-12-27T13:40:24.854Z,1.53
2022-12-27T13:43:07.245Z,2.33
2022-12-27T13:45:51.947Z,2.30
2022-12-27T13:48:47.287Z,2.80
2022-12-27T13:51:25.202Z,2.30
2022-12-27T13:54:38.879Z,3.10
2022-12-27T13:57:13.648Z,3.37
2022-12-27T13:59:52.560Z,2.97
2022-12-27T14:02:49.666Z,2.40
2022-12-27T14:05:53.140Z,2.40
2022-12-27T14:08:29.080Z,2.90
2022-12-27T14:11:01.054Z,2.70
2022-12-27T14:13:33.229Z,2.13
2022-12-27T14:16:31.808Z,2.50
2022-12-27T14:19:22.822Z,2.30
2022-12-27T14:22:04.159Z,2.60
2022-12-27T14:24:59.508Z,2.40
2022-12-27T14:28:05.038Z,2.40
2022-12-27T14:30:48.928Z,1.70
2022-12-27T14:33:46.044Z,2.13
2022-12-27T14:36:42.476Z,2.37
2022-12-27T14:39:59.691Z,1.97
2022-12-27T14:42:55.127Z,2.40
2022-12-27T14:46:00.292Z,2.63
2022-12-27T14:48:43.973Z,3.47
2022-12-27T14:52:12.111Z,2.27
2022-12-27T14:54:54.847Z,2.63
2022-12-27T14:57:33.507Z,2.43
2022-12-27T15:00:05.598Z,2.43
2022-12-27T15:03:01.253Z,2.80
2022-12-27T15:05:40.646Z,2.30
2022-12-27T15:08:35.264Z,3.03
2022-12-27T15:11:26.036Z,3.17
2022-12-27T15:14:04.007Z,2.73
2022-12-27T15:16:40.137Z,2.53
2022-12-27T15:19:23.346Z,2.53
2022-12-27T15:22:02.058Z,4.67
2022-12-27T15:24:39.438Z,2.70
2022-12-27T15:27:19.652Z,2.43
2022-12-27T15:30:03.892Z,2.50
2022-12-27T15:32:40.308Z,2.10
2022-12-27T15:35:20.286Z,2.70
2022-12-27T15:38:03.216Z,2.47
2022-12-27T15:41:09.453Z,3.00
2022-12-27T15:44:04.172Z,2.30
2022-12-27T15:46:51.714Z,2.30
2022-12-27T15:49:29.948Z,3.07
2022-12-27T15:52:02.643Z,2.23
2022-12-27T15:54:54.059Z,1.80
2022-12-27T15:57:33.246Z,2.37
2022-12-27T16:00:14.459Z,1.80
2022-12-27T16:02:52.252Z,2.60
2022-12-27T16:05:46.502Z,2.27
2022-12-27T16:08:35.007Z,2.17
2022-12-27T16:11:06.000Z,1.77
2022-12-27T16:13:42.177Z,2.00
2022-12-27T16:16:12.734Z,2.03
2022-12-27T16:19:21.949Z,2.87
2022-12-27T16:21:49.839Z,2.90
2022-12-27T16:24:20.371Z,2.97
2022-12-27T16:26:56.131Z,1.70
2022-12-27T16:29:28.281Z,2.20
2022-12-27T16:32:13.754Z,2.40
2022-12-27T16:34:41.797Z,2.30
2022-12-27T16:37:23.947Z,1.70
2022-12-27T16:40:15.276Z,2.20
2022-12-27T16:46:01.971Z,1.83
2022-12-27T16:48:37.140Z,2.13
2022-12-27T16:51:13.812Z,1.90
2022-12-27T16:54:16.624Z,1.70
2022-12-27T16:56:48.037Z,1.50
2022-12-27T16:59:52.024Z,1.57
2022-12-27T17:02:39.834Z,2.00
2022-12-27T17:05:36.076Z,1.40
2022-12-27T17:08:20.030Z,1.90
2022-12-27T17:10:58.255Z,1.87
2022-12-27T17:13:35.046Z,2.37
2022-12-27T17:16:07.741Z,2.27
2022-12-27T17:18:39.360Z,2.30
2022-12-27T17:21:09.362Z,2.20
2022-12-27T17:23:42.308Z,2.10
2022-12-27T17:26:20.301Z,2.40
2022-12-27T17:28:54.634Z,2.67
2022-12-27T17:31:26.244Z,3.00
2022-12-27T17:34:03.535Z,3.27
2022-12-27T17:36:40.027Z,2.90
2022-12-27T17:39:22.940Z,2.87
2022-12-27T17:42:14.177Z,2.90
2022-12-27T17:44:54.222Z,2.90
2022-12-27T17:47:33.472Z,3.00
2022-12-27T17:50:04.496Z,2.00
2022-12-27T17:52:49.976Z,2.10
2022-12-27T17:55:37.866Z,2.40
2022-12-27T17:58:08.512Z,2.20
2022-12-27T18:00:38.128Z,2.90
2022-12-27T18:03:09.258Z,2.40
2022-12-27T18:05:44.135Z,2.57
2022-12-27T18:08:20.347Z,3.40
2022-12-27T18:10:47.961Z,2.33
2022-12-27T18:13:18.551Z,4.60
2022-12-27T18:15:47.296Z,2.50
2022-12-27T18:18:19.799Z,2.10
2022-12-27T18:20:55.184Z,1.97
2022-12-27T18:23:22.821Z,1.33
2022-12-27T18:25:53.523Z,2.67
2022-12-27T18:28:27.216Z,1.77
2022-12-27T18:31:07.224Z,2.63
2022-12-27T18:33:36.272Z,2.10
2022-12-27T18:36:06.874Z,3.40
2022-12-27T18:38:36.338Z,2.77
2022-12-27T18:41:06.061Z,4.10
2022-12-27T18:43:34.604Z,2.17
2022-12-27T18:46:03.064Z,2.53
2022-12-27T18:48:34.678Z,2.53
2022-12-27T18:51:03.110Z,3.27
2022-12-27T18:53:36.933Z,4.50
2022-12-27T18:56:06.816Z,3.10
2022-12-27T18:58:35.198Z,3.20
2022-12-27T19:01:05.601Z,2.67
2022-12-27T19:03:40.226Z,2.50
2022-12-27T19:06:10.908Z,2.50
2022-12-27T19:08:45.079Z,2.57
2022-12-27T19:11:19.968Z,2.30
2022-12-27T19:13:49.563Z,2.33
2022-12-27T19:16:25.733Z,2.20
2022-12-27T19:18:54.939Z,2.10
2022-12-27T19:21:30.323Z,2.17
2022-12-27T19:23:59.241Z,2.70
2022-12-27T19:26:31.291Z,2.97
2022-12-27T19:29:02.123Z,5.00
2022-12-27T19:31:29.946Z,4.40
2022-12-27T19:34:00.418Z,3.60
2022-12-27T19:36:30.275Z,2.43
2022-12-27T19:38:59.448Z,3.10
2022-12-27T19:41:27.364Z,2.70
2022-12-27T19:43:55.623Z,2.60
2022-12-27T19:46:30.517Z,1.90
2022-12-27T19:51:46.568Z,3.07
2022-12-27T19:54:18.245Z,2.37
2022-12-27T19:56:45.956Z,2.23
2022-12-27T19:59:15.901Z,2.30
2022-12-27T20:01:44.751Z,6.90
2022-12-27T20:04:12.357Z,8.10
2022-12-27T20:06:40.996Z,3.40
2022-12-27T20:09:10.981Z,2.87
2022-12-27T20:11:42.175Z,3.43
2022-12-27T20:14:09.759Z,2.40
2022-12-27T20:16:37.331Z,3.07
2022-12-27T20:19:04.961Z,2.80
2022-12-27T20:21:32.826Z,2.73
2022-12-27T20:24:00.313Z,3.87
2022-12-27T20:26:27.922Z,3.30
2022-12-27T20:28:56.821Z,3.50
2022-12-27T20:31:24.436Z,3.83
2022-12-27T20:33:53.083Z,3.87
2022-12-27T20:36:21.706Z,3.87
2022-12-27T20:38:49.290Z,4.63
2022-12-27T20:41:18.353Z,4.70
2022-12-27T20:43:46.144Z,4.47
2022-12-27T20:46:17.176Z,5.63
2022-12-27T20:48:46.730Z,4.00
2022-12-27T20:51:16.343Z,6.53
2022-12-27T20:53:44.365Z,4.70
2022-12-27T20:56:13.080Z,4.53
2022-12-27T20:58:41.189Z,5.20
2022-12-27T21:01:09.121Z,3.40
2022-12-27T21:03:39.207Z,4.23
2022-12-27T21:06:08.343Z,3.67
2022-12-27T21:08:44.570Z,3.40
2022-12-27T21:11:16.848Z,4.93
2022-12-27T21:13:44.603Z,4.20
2022-12-27T21:16:12.925Z,4.57
2022-12-27T21:18:42.124Z,3.77
2022-12-27T21:21:11.672Z,4.80
2022-12-27T21:23:39.494Z,4.00
2022-12-27T21:26:08.686Z,3.60
2022-12-27T21:28:36.580Z,3.60
2022-12-27T21:31:04.845Z,4.70
2022-12-27T21:33:33.480Z,3.57
2022-12-27T21:36:04.153Z,4.47
2022-12-27T21:38:31.998Z,6.00
2022-12-27T21:41:00.447Z,4.70
2022-12-27T21:43:28.846Z,4.60
2022-12-27T21:45:56.855Z,4.60
2022-12-27T21:48:24.980Z,5.50
2022-12-27T21:50:52.675Z,4.17
2022-12-27T21:53:21.685Z,4.50
2022-12-27T21:55:49.300Z,4.73
2022-12-27T21:58:17.154Z,6.27
2022-12-27T22:00:44.665Z,4.50
2022-12-27T22:03:12.353Z,4.03
2022-12-27T22:05:39.989Z,4.40
2022-12-27T22:08:07.601Z,4.47
2022-12-27T22:10:36.530Z,4.40
2022-12-27T22:13:04.075Z,4.80
2022-12-27T22:15:31.657Z,3.90
2022-12-27T22:17:59.232Z,4.50
2022-12-27T22:20:26.735Z,3.90
2022-12-27T22:22:54.313Z,4.47
2022-12-27T22:25:21.805Z,4.80
2022-12-27T22:27:50.763Z,4.13
2022-12-27T22:30:18.371Z,4.40
2022-12-27T22:32:45.957Z,6.43
2022-12-27T22:35:13.513Z,4.13
2022-12-27T22:37:41.085Z,3.67
2022-12-27T22:40:31.037Z,4.40
2022-12-27T22:42:59.024Z,4.70
2022-12-27T22:45:26.795Z,4.70
2022-12-27T22:47:54.642Z,4.00
2022-12-27T22:50:22.281Z,3.90
2022-12-27T22:52:49.904Z,4.03
2022-12-27T22:55:17.630Z,4.70
2022-12-27T22:57:45.230Z,4.53
2022-12-27T23:00:15.818Z,4.40
2022-12-27T23:02:43.541Z,4.70
2022-12-27T23:05:11.165Z,6.33
2022-12-27T23:08:06.057Z,6.60
2022-12-27T23:10:26.306Z,4.90
2022-12-27T23:12:53.997Z,5.77
2022-12-27T23:15:22.911Z,5.07
2022-12-27T23:17:50.576Z,5.63
2022-12-27T23:20:18.099Z,5.13
2022-12-27T23:22:45.699Z,5.20
2022-12-27T23:25:13.284Z,5.10
2022-12-27T23:27:40.942Z,4.80
2022-12-27T23:30:09.601Z,5.37
2022-12-27T23:32:38.479Z,4.00
2022-12-27T23:35:06.591Z,5.00
2022-12-27T23:37:34.652Z,5.50
2022-12-27T23:40:02.403Z,4.63
2022-12-27T23:42:29.947Z,4.67
2022-12-27T23:44:57.453Z,5.47
2022-12-27T23:47:25.043Z,4.70
2022-12-27T23:49:53.968Z,4.30
2022-12-27T23:52:23.292Z,4.97
2022-12-27T23:54:50.875Z,4.97
2022-12-27T23:57:19.988Z,4.90
2022-12-27T23:59:49.219Z,4.47
